Terminal Aerodrome Forecast
Issued by NWS Upton, NY

Home | Current Version | Previous Version | Text Only | Print | Product List | Glossary On
Versions: 1 2 3 4 5 6 7 8 9 10 11 12 13 14 15 16 17 18 19 20 21 22 23 24
000
FTUS41 KOKX 241724
TAFBDR
TAF
KBDR 241724Z 2418/2518 22013G19KT P6SM SCT250
     FM242300 22009KT P6SM SCT250
     FM250200 22005KT P6SM BKN150
     FM251400 22013KT P6SM SCT150 BKN200=

USA.gov is the U.S. government's official web portal to all federal, state and local government web resources and services.